^^
Station Historical Data
Daily Summary for February 13, 2017 Units:  Metric    English   Both
« Previous Day
Next Day »
Daily Weekly Monthly Yearly Custom
  High: Low: Average:
Temperature: 32.8 °C 19.2 °C 25.3 °C
Dew Point: 12.2 °C 4.6 °C 9.6 °C
Humidity: 61% 18% 41%
Wind Speed: 32km/h 6.4km/h 17.1km/h
Wind Gust: 35.4km/h - -
Wind- - SSW
Pressure: 1008.4 hPa 1003.9 hPa -
Precipitation: 0 mm    
Historical Graphs
 
 
Tabular Data for February 13, 2017
Time Temperature Dew Point Pressure Wind Wind Speed Wind Gust Humidity Rainfall Rate (Hourly) solar Conditions
00:06 25.1 °C 10.2 °C 1007.3 hPa SSW 9.7 km/h 16.1 km/h 39% 0 mm 0.0 W/m2
00:10 25 °C 10.1 °C 1007.3 hPa SSW 9.7 km/h 17.7 km/h 39% 0 mm 0.0 W/m2
00:46 24.3 °C 10.9 °C 1007 hPa SSW 14.3 km/h 16.1 km/h 43% 0 mm 0.0 W/m2
00:51 24.2 °C 10.8 °C 1007 hPa SSW 16.3 km/h 17.7 km/h 43% 0 mm 0.0 W/m2
00:55 24.1 °C 11.1 °C 1007 hPa SSW 9.7 km/h 19.3 km/h 44% 0 mm 0.0 W/m2
01:06 24.1 °C 11.4 °C 1007 hPa SSW 14.3 km/h 17.7 km/h 45% 0 mm 0.0 W/m2
01:42 23.6 °C 11.3 °C 1007 hPa SSW 11.1 km/h 14.5 km/h 46% 0 mm 0.0 W/m2
01:53 23.6 °C 11.3 °C 1007 hPa SSW 9.7 km/h 12.9 km/h 46% 0 mm 0.0 W/m2
02:08 23.2 °C 11.3 °C 1006.7 hPa SSW 7.9 km/h 11.3 km/h 47% 0 mm 0.0 W/m2
02:18 22.9 °C 11.3 °C 1006.7 hPa SSW 6.4 km/h 9.7 km/h 48% 0 mm 0.0 W/m2
02:33 22.6 °C 11.3 °C 1006.7 hPa SSW 9.7 km/h 12.9 km/h 49% 0 mm 0.0 W/m2
02:48 22.5 °C 11.3 °C 1006.7 hPa SSW 9.7 km/h 14.5 km/h 49% 0 mm 0.0 W/m2
02:53 22.5 °C 11.3 °C 1006.7 hPa SSW 9.7 km/h 14.5 km/h 49% 0 mm 0.0 W/m2
03:14 22.3 °C 11.4 °C 1006.7 hPa SSW 7.9 km/h 11.3 km/h 50% 0 mm 0.0 W/m2
03:29 21.9 °C 11.6 °C 1006.7 hPa SSW 9.7 km/h 11.3 km/h 52% 0 mm 0.0 W/m2
04:19 21.4 °C 10.8 °C 1006.7 hPa SSW 16.3 km/h 16.3 km/h 51% 0 mm 0.0 W/m2
04:59 20.8 °C 10.9 °C 1006.7 hPa SSW 13 km/h 19.3 km/h 53% 0 mm 0.0 W/m2
05:14 20.4 °C 10.8 °C 1006.7 hPa SSW 9.7 km/h 14.5 km/h 54% 0 mm 0.0 W/m2
05:19 20.4 °C 10.8 °C 1006.7 hPa SSW 14.3 km/h 14.5 km/h 54% 0 mm 0.0 W/m2
05:25 20.3 °C 11 °C 1006.7 hPa SSW 9.7 km/h 11.3 km/h 55% 0 mm 0.0 W/m2
05:34 20.2 °C 10.9 °C 1007 hPa SSW 6.4 km/h 11.3 km/h 55% 0 mm 0.0 W/m2
05:39 20.1 °C 11 °C 1007 hPa SSW 13 km/h 13 km/h 56% 0 mm 0.0 W/m2
05:44 19.9 °C 10.9 °C 1007 hPa SSW 13 km/h 14.5 km/h 56% 0 mm 0.0 W/m2
05:50 19.8 °C 11 °C 1007 hPa SSW 11.1 km/h 14.5 km/h 57% 0 mm 0.0 W/m2
06:00 19.7 °C 10.9 °C 1007.3 hPa SSW 11.1 km/h 11.3 km/h 57% 0 mm 0.0 W/m2
06:05 19.7 °C 11.2 °C 1007.3 hPa SSW 11.1 km/h 16.1 km/h 58% 0 mm 0.0 W/m2
06:16 19.6 °C 11.1 °C 1007.3 hPa SSW 13 km/h 14.5 km/h 58% 0 mm 0.0 W/m2
06:25 19.4 °C 11.2 °C 1007.3 hPa SSW 11.1 km/h 12.9 km/h 59% 0 mm 5.0 W/m2
06:31 19.3 °C 11.3 °C 1007.3 hPa SSW 11.1 km/h 14.5 km/h 60% 0 mm 5.0 W/m2
06:39 19.2 °C 11.5 °C 1007.3 hPa SSW 13 km/h 14.5 km/h 61% 0 mm 12.0 W/m2
06:47 19.2 °C 11.5 °C 1007.3 hPa SSW 14.3 km/h 19.3 km/h 61% 0 mm 19.0 W/m2
06:49 19.3 °C 11.6 °C 1007.3 hPa SSW 14.3 km/h 16.1 km/h 61% 0 mm 23.0 W/m2
06:57 19.3 °C 11.6 °C 1007.3 hPa SSW 11.1 km/h 14.5 km/h 61% 0 mm 33.0 W/m2
07:08 19.5 °C 11.8 °C 1007.3 hPa SSW 11.1 km/h 16.1 km/h 61% 0 mm 62.0 W/m2
07:16 19.7 °C 12 °C 1007.7 hPa SSW 7.9 km/h 14.5 km/h 61% 0 mm 93.0 W/m2
07:27 19.8 °C 11.8 °C 1007.7 hPa SSW 13 km/h 17.7 km/h 60% 0 mm 134.0 W/m2
07:33 19.9 °C 11.9 °C 1007.7 hPa SSW 11.1 km/h 17.7 km/h 60% 0 mm 160.0 W/m2
07:39 20.3 °C 12 °C 1008 hPa SSW 11.1 km/h 17.7 km/h 59% 0 mm 213.0 W/m2
08:01 20.7 °C 11.9 °C 1008 hPa SSW 14.3 km/h 19.3 km/h 57% 0 mm 276.0 W/m2
08:15 21.2 °C 12.1 °C 1008 hPa SSW 17.7 km/h 20.9 km/h 56% 0 mm 334.0 W/m2
08:24 21.6 °C 12.2 °C 1008.4 hPa SSW 19.5 km/h 20.9 km/h 55% 0 mm 399.0 W/m2
10:12 24.4 °C 12 °C 1008 hPa SW 17.7 km/h 20.9 km/h 46% 0 mm 719.0 W/m2
14:19 31.4 °C 9 °C 1006 hPa SW 25.9 km/h 29 km/h 25% 0 mm 914.0 W/m2
14:25 31.5 °C 8.5 °C 1006 hPa South 22.7 km/h 29 km/h 24% 0 mm 907.0 W/m2
14:30 31.8 °C 8.7 °C 1005.6 hPa SSW 30.6 km/h 30.6 km/h 24% 0 mm 904.0 W/m2
14:35 31.9 °C 8.2 °C 1005.6 hPa SSW 30.6 km/h 30.6 km/h 23% 0 mm 895.0 W/m2
14:40 31.7 °C 8 °C 1005.6 hPa South 24.1 km/h 27.4 km/h 23% 0 mm 886.0 W/m2
14:43 31.8 °C 7.5 °C 1005.6 hPa South 17.7 km/h 22.5 km/h 22% 0 mm 879.0 W/m2
14:54 32.3 °C 7.9 °C 1005.6 hPa South 25.9 km/h 27.4 km/h 22% 0 mm 868.0 W/m2
15:13 32.4 °C 8 °C 1005.3 hPa South 17.7 km/h 22.5 km/h 22% 0 mm 817.0 W/m2
15:23 32.3 °C 8.5 °C 1005.3 hPa SSE 19.5 km/h 29 km/h 23% 0 mm 807.0 W/m2
15:28 32.6 °C 7.4 °C 1005 hPa SSE 17.7 km/h 24.1 km/h 21% 0 mm 784.0 W/m2
15:42 32.8 °C 7.6 °C 1005 hPa SSE 17.7 km/h 30.6 km/h 21% 0 mm 758.0 W/m2
15:52 32.5 °C 7.4 °C 1004.6 hPa South 27.4 km/h 30.6 km/h 21% 0 mm 733.0 W/m2
16:01 32.2 °C 7.1 °C 1004.6 hPa SSE 9.7 km/h 16.1 km/h 21% 0 mm 703.0 W/m2
16:03 32.4 °C 7.3 °C 1004.6 hPa SSW 17.7 km/h 25.7 km/h 21% 0 mm 691.0 W/m2
16:18 32.5 °C 7.4 °C 1004.6 hPa SSE 17.7 km/h 24.1 km/h 21% 0 mm 663.0 W/m2
16:29 32.6 °C 6.7 °C 1004.3 hPa SSE 16.3 km/h 27.4 km/h 20% 0 mm 631.0 W/m2
16:43 32.6 °C 6 °C 1003.9 hPa SSW 17.7 km/h 29 km/h 19% 0 mm 578.0 W/m2
16:48 32.7 °C 5.3 °C 1003.9 hPa SSW 22.7 km/h 27.4 km/h 18% 0 mm 545.0 W/m2
17:05 32.5 °C 5.9 °C 1003.9 hPa SSE 25.9 km/h 32.2 km/h 19% 0 mm 513.0 W/m2
17:20 32.2 °C 4.9 °C 1003.9 hPa South 25.9 km/h 30.6 km/h 18% 0 mm 457.0 W/m2
17:35 31.9 °C 4.6 °C 1003.9 hPa SSW 14.3 km/h 29 km/h 18% 0 mm 406.0 W/m2
17:43 31.8 °C 5.3 °C 1003.9 hPa South 30.6 km/h 30.6 km/h 19% 0 mm 346.0 W/m2
18:06 31.4 °C 5 °C 1004.3 hPa South 25.9 km/h 33.8 km/h 19% 0 mm 295.0 W/m2
18:20 30.9 °C 5.3 °C 1004.3 hPa South 22.7 km/h 30.6 km/h 20% 0 mm 236.0 W/m2
18:34 30.6 °C 5.1 °C 1004.3 hPa South 25.9 km/h 35.4 km/h 20% 0 mm 167.0 W/m2
18:49 30.2 °C 6.1 °C 1004.6 hPa South 25.9 km/h 30.6 km/h 22% 0 mm 104.0 W/m2
18:53 29.7 °C 7 °C 1004.6 hPa SSW 32 km/h 32.2 km/h 24% 0 mm 67.0 W/m2
19:14 29.2 °C 7.2 °C 1004.6 hPa SSW 27.4 km/h 29 km/h 25% 0 mm 23.0 W/m2
19:25 28.8 °C 7.9 °C 1004.6 hPa South 24.1 km/h 33.8 km/h 27% 0 mm 12.0 W/m2
19:40 28.2 °C 9 °C 1005 hPa SSW 22.7 km/h 29 km/h 30% 0 mm 5.0 W/m2
19:54 27.4 °C 9.7 °C 1005.3 hPa South 24.1 km/h 24.1 km/h 33% 0 mm 0.0 W/m2
20:05 26.9 °C 10.1 °C 1005.3 hPa SSW 19.5 km/h 25.7 km/h 35% 0 mm 0.0 W/m2
20:20 26.4 °C 10.5 °C 1005.6 hPa SSW 22.7 km/h 25.7 km/h 37% 0 mm 0.0 W/m2
20:29 25.9 °C 10.5 °C 1006 hPa SSW 20.9 km/h 25.7 km/h 38% 0 mm 0.0 W/m2
20:50 25.6 °C 10.2 °C 1006.3 hPa SSW 17.7 km/h 29 km/h 38% 0 mm 0.0 W/m2
21:05 25.3 °C 10.3 °C 1006.7 hPa SSW 24.1 km/h 25.7 km/h 39% 0 mm 0.0 W/m2
21:20 24.9 °C 10 °C 1007 hPa SSW 20.9 km/h 25.7 km/h 39% 0 mm 0.0 W/m2
21:29 24.7 °C 9 °C 1007.3 hPa SSW 16.3 km/h 25.7 km/h 37% 0 mm 0.0 W/m2
21:43 24.4 °C 9.5 °C 1007.3 hPa South 14.3 km/h 24.1 km/h 39% 0 mm 0.0 W/m2
21:54 24.2 °C 9.4 °C 1007.3 hPa South 20.9 km/h 27.4 km/h 39% 0 mm 0.0 W/m2
22:03 24 °C 9.6 °C 1007.3 hPa SSW 19.5 km/h 22.5 km/h 40% 0 mm 0.0 W/m2
23:31 21.4 °C 10.2 °C 1007.7 hPa SSW 20.9 km/h 25.7 km/h 49% 0 mm 0.0 W/m2
23:36 21.2 °C 10.7 °C 1008 hPa SSW 20.9 km/h 24.1 km/h 51% 0 mm 0.0 W/m2
23:41 21.1 °C 10.6 °C 1008 hPa SSW 19.5 km/h 24.1 km/h 51% 0 mm 0.0 W/m2
23:46 20.9 °C 10.7 °C 1008 hPa SSW 16.3 km/h 24.1 km/h 52% 0 mm 0.0 W/m2
23:51 20.8 °C 10.9 °C 1008 hPa SSW 16.3 km/h 24.1 km/h 53% 0 mm 0.0 W/m2
23:56 20.7 °C 10.8 °C 1008 hPa SSW 19.5 km/h 24.1 km/h 53% 0 mm 0.0 W/m2
Canyon Roadhouse, Fishriver Canyon, Namibia
Compliments of Weather Underground - 2 mb